Time;durP1;ratioP1;P1;durP2;ratioP2;P2;SDS_P1;SDS_P2;PMS_P1;PMS_P2;Temp;Humidity;BMP_temperature;BMP_pressure;BME280_temperature;BME280_humidity;BME280_pressure;Samples;Min_cycle;Max_cycle;Signal;HPM_P1;HPM_P2
2021/03/01 00:00:38;;;;;;;1999.90;999.90;;;23.20;61.20;;;;;;5055766;28;20169;-43
2021/03/01 00:03:06;;;;;;;1999.90;999.90;;;23.20;61.50;;;;;;5055709;28;20189;-42
2021/03/01 00:05:33;;;;;;;1999.90;999.90;;;23.20;61.40;;;;;;5055713;28;20230;-41
2021/03/01 00:08:00;;;;;;;1999.90;999.90;;;23.30;61.30;;;;;;5055594;28;20652;-42
2021/03/01 00:10:26;;;;;;;1999.90;999.90;;;23.30;61.40;;;;;;5055538;28;20635;-45
2021/03/01 00:12:53;;;;;;;1999.90;999.90;;;23.20;61.30;;;;;;5055537;28;20256;-42
2021/03/01 00:15:24;;;;;;;1999.90;999.90;;;23.20;61.40;;;;;;5055397;28;20541;-42
2021/03/01 00:17:50;;;;;;;1999.90;999.90;;;23.10;61.40;;;;;;5055775;28;20646;-42
2021/03/01 00:20:17;;;;;;;1999.90;999.90;;;23.10;61.60;;;;;;5055389;28;20173;-41
2021/03/01 00:22:46;;;;;;;1999.90;999.90;;;23.10;61.60;;;;;;5055505;28;20254;-41
2021/03/01 00:25:14;;;;;;;1999.90;999.90;;;23.10;61.50;;;;;;5055398;28;20692;-41
2021/03/01 00:27:41;;;;;;;1999.90;999.90;;;23.10;61.50;;;;;;5055068;28;20594;-41
2021/03/01 00:30:09;;;;;;;1999.90;999.90;;;23.00;61.90;;;;;;5055210;28;20173;-42
2021/03/01 00:32:37;;;;;;;1999.90;999.90;;;22.90;62.20;;;;;;5054951;28;20220;-43
2021/03/01 00:35:06;;;;;;;1999.90;999.90;;;22.90;62.20;;;;;;5055147;28;20201;-41
2021/03/01 00:37:33;;;;;;;1999.90;999.90;;;22.90;62.50;;;;;;5055121;28;20169;-41
2021/03/01 00:40:00;;;;;;;1999.90;999.90;;;22.90;62.70;;;;;;5054996;28;20204;-41
2021/03/01 00:42:27;;;;;;;1999.90;999.90;;;22.80;62.80;;;;;;5055018;28;20620;-41
2021/03/01 00:44:54;;;;;;;1999.90;999.90;;;22.70;63.40;;;;;;5054903;28;20173;-41
2021/03/01 00:47:21;;;;;;;1999.90;999.90;;;22.60;63.80;;;;;;5054807;28;20215;-42
2021/03/01 00:49:48;;;;;;;1999.90;999.90;;;22.50;64.50;;;;;;5054857;28;20292;-41
2021/03/01 00:52:15;;;;;;;1999.90;999.90;;;22.50;65.70;;;;;;5054925;28;20215;-41
2021/03/01 00:54:42;;;;;;;1999.90;999.90;;;22.40;65.20;;;;;;5054750;28;20169;-41
2021/03/01 00:57:09;;;;;;;1999.90;999.90;;;22.30;65.70;;;;;;5053872;28;20176;-41
2021/03/01 00:59:35;;;;;;;1999.90;999.90;;;22.30;65.70;;;;;;5054674;28;20161;-41
2021/03/01 01:02:02;;;;;;;1999.90;999.90;;;22.20;65.60;;;;;;5054534;28;20199;-41
2021/03/01 01:04:29;;;;;;;1999.90;999.90;;;22.20;65.60;;;;;;5054556;28;20161;-42
2021/03/01 01:06:56;;;;;;;1999.90;999.90;;;22.20;65.70;;;;;;5054467;28;20196;-41
2021/03/01 01:09:23;;;;;;;1999.90;999.90;;;22.10;65.80;;;;;;5054354;28;20283;-41
2021/03/01 01:11:50;;;;;;;1999.90;999.90;;;22.00;66.00;;;;;;5054554;28;20243;-41
2021/03/01 01:14:16;;;;;;;1999.90;999.90;;;22.00;66.30;;;;;;5054427;28;20541;-42
2021/03/01 01:16:43;;;;;;;1999.90;999.90;;;22.00;66.50;;;;;;5054329;28;20663;-42
2021/03/01 01:19:10;;;;;;;1999.90;999.90;;;22.00;66.20;;;;;;5054266;28;20169;-43
2021/03/01 01:21:37;;;;;;;1999.90;999.90;;;22.00;66.30;;;;;;5054148;28;20579;-42
2021/03/01 01:24:04;;;;;;;1999.90;999.90;;;22.10;66.10;;;;;;5054226;28;20172;-41
2021/03/01 01:26:31;;;;;;;1999.90;999.90;;;22.10;65.60;;;;;;5054089;28;20177;-41
2021/03/01 01:28:58;;;;;;;1999.90;999.90;;;22.10;65.40;;;;;;5054009;28;20224;-41
2021/03/01 01:31:25;;;;;;;1999.90;999.90;;;22.20;65.30;;;;;;5053840;28;20233;-42
2021/03/01 01:33:51;;;;;;;1999.90;999.90;;;22.20;65.00;;;;;;5054068;28;20173;-41
2021/03/01 01:36:18;;;;;;;1999.90;999.90;;;22.30;64.80;;;;;;5054119;28;20280;-41
2021/03/01 01:38:45;;;;;;;1999.90;999.90;;;22.20;65.20;;;;;;5053902;28;20173;-42
2021/03/01 01:41:12;;;;;;;1999.90;999.90;;;22.10;65.50;;;;;;5053869;28;20185;-41
2021/03/01 01:43:39;;;;;;;1999.90;999.90;;;22.10;65.60;;;;;;5053782;28;20222;-41
2021/03/01 01:46:05;;;;;;;1999.90;999.90;;;22.10;65.90;;;;;;5053715;28;20184;-41
2021/03/01 01:48:32;;;;;;;1999.90;999.90;;;22.00;66.20;;;;;;5053586;28;20212;-43
2021/03/01 01:50:59;;;;;;;1999.90;999.90;;;22.00;66.50;;;;;;5053619;28;20165;-43
2021/03/01 01:53:26;;;;;;;1999.90;999.90;;;22.00;66.60;;;;;;5053631;28;20170;-43
2021/03/01 01:55:55;;;;;;;1999.90;999.90;;;22.00;66.70;;;;;;5053665;28;20620;-43
2021/03/01 01:58:22;;;;;;;1999.90;999.90;;;22.10;66.80;;;;;;5053610;28;20181;-41
2021/03/01 02:00:50;;;;;;;1999.90;999.90;;;22.00;66.90;;;;;;5053396;28;20576;-41
2021/03/01 02:03:40;;;;;;;1999.90;999.90;;;22.10;66.90;;;;;;5053333;28;20185;-41
2021/03/01 02:06:35;;;;;;;1999.90;999.90;;;22.10;66.90;;;;;;5053417;28;20529;-41
2021/03/01 02:09:19;;;;;;;1999.90;999.90;;;22.20;66.30;;;;;;5052701;28;20217;-41
2021/03/01 02:12:04;;;;;;;1999.90;999.90;;;22.30;66.40;;;;;;5053424;28;20154;-45
2021/03/01 02:14:49;;;;;;;1999.90;999.90;;;22.40;66.20;;;;;;5053342;28;20647;-43
2021/03/01 02:17:16;;;;;;;1999.90;999.90;;;22.40;66.20;;;;;;5053312;28;20705;-42
2021/03/01 02:19:43;;;;;;;1999.90;999.90;;;22.30;66.50;;;;;;5053158;28;20201;-42
2021/03/01 02:22:10;;;;;;;1999.90;999.90;;;22.30;67.40;;;;;;5053174;28;20169;-42
2021/03/01 02:25:05;;;;;;;1999.90;999.90;;;22.40;66.50;;;;;;5051858;28;20215;-42
2021/03/01 02:27:36;;;;;;;1999.90;999.90;;;22.40;66.50;;;;;;5052750;28;20187;-42
2021/03/01 02:30:29;;;;;;;1999.90;999.90;;;22.40;66.40;;;;;;5053100;28;20169;-42
2021/03/01 02:33:21;;;;;;;1999.90;999.90;;;22.50;66.50;;;;;;5053033;28;20304;-42
2021/03/01 02:35:57;;;;;;;1999.90;999.90;;;22.50;66.30;;;;;;5052971;28;20173;-42
2021/03/01 02:38:27;;;;;;;1999.90;999.90;;;22.50;66.50;;;;;;5053179;28;20149;-42
2021/03/01 02:40:55;;;;;;;1999.90;999.90;;;22.50;66.60;;;;;;5053018;28;20165;-42
2021/03/01 02:43:24;;;;;;;1999.90;999.90;;;22.50;66.70;;;;;;5052882;28;20161;-42
2021/03/01 02:45:52;;;;;;;1999.90;999.90;;;22.50;66.50;;;;;;5052828;28;20223;-42
2021/03/01 02:48:20;;;;;;;1999.90;999.90;;;22.50;66.40;;;;;;5052757;28;20690;-41
2021/03/01 02:50:49;;;;;;;1999.90;999.90;;;22.60;66.20;;;;;;5052815;28;20192;-42
2021/03/01 02:53:17;;;;;;;1999.90;999.90;;;22.60;66.30;;;;;;5052844;28;20176;-42
2021/03/01 02:55:47;;;;;;;1999.90;999.90;;;22.60;66.50;;;;;;5052770;28;20196;-41
2021/03/01 02:58:17;;;;;;;1999.90;999.90;;;22.70;66.50;;;;;;5052762;28;20179;-41
2021/03/01 03:00:46;;;;;;;1999.90;999.90;;;22.70;66.40;;;;;;5052764;28;20163;-41
2021/03/01 03:03:14;;;;;;;1999.90;999.90;;;22.70;66.10;;;;;;5052649;28;20199;-41
2021/03/01 03:05:44;;;;;;;1999.90;999.90;;;22.80;66.10;;;;;;5052639;28;20234;-41
2021/03/01 03:08:13;;;;;;;1999.90;999.90;;;22.80;65.80;;;;;;5052610;28;20288;-42
2021/03/01 03:10:41;;;;;;;1999.90;999.90;;;22.90;65.40;;;;;;5052584;28;20636;-41
2021/03/01 03:13:10;;;;;;;1999.90;999.90;;;22.90;65.20;;;;;;5052556;28;20169;-43
2021/03/01 03:15:39;;;;;;;1999.90;999.90;;;22.80;65.50;;;;;;5052582;28;20169;-43
2021/03/01 03:18:10;;;;;;;1999.90;999.90;;;22.80;65.10;;;;;;5052657;28;20181;-43
2021/03/01 03:20:37;;;;;;;1999.90;999.90;;;22.80;65.60;;;;;;5056270;28;20180;-43
2021/03/01 03:23:05;;;;;;;1999.90;999.90;;;22.70;65.80;;;;;;5056499;28;20169;-43
2021/03/01 03:25:32;;;;;;;1999.90;999.90;;;22.80;66.00;;;;;;5056419;28;20247;-43
2021/03/01 03:27:59;;;;;;;1999.90;999.90;;;22.70;65.60;;;;;;5056454;28;20604;-44
2021/03/01 03:30:26;;;;;;;1999.90;999.90;;;22.70;65.80;;;;;;5056302;28;20177;-43
2021/03/01 03:32:54;;;;;;;1999.90;999.90;;;22.70;66.00;;;;;;5056138;28;20224;-43
2021/03/01 03:35:21;;;;;;;1999.90;999.90;;;22.60;66.00;;;;;;5056211;28;20534;-43
2021/03/01 03:38:11;;;;;;;1999.90;999.90;;;22.70;66.80;;;;;;5056180;28;20573;-43
2021/03/01 03:40:42;;;;;;;1999.90;999.90;;;22.60;67.00;;;;;;5056126;28;20169;-45
2021/03/01 03:43:09;;;;;;;1999.90;999.90;;;22.60;67.40;;;;;;5056165;28;20245;-45
2021/03/01 03:45:37;;;;;;;1999.90;999.90;;;22.40;67.00;;;;;;5056105;28;20176;-43
2021/03/01 03:48:05;;;;;;;1999.90;999.90;;;22.20;67.20;;;;;;5055938;28;20209;-42
2021/03/01 03:50:33;;;;;;;1999.90;999.90;;;22.10;67.70;;;;;;5056152;28;20215;-41
2021/03/01 03:53:12;;;;;;;1999.90;999.90;;;21.90;68.40;;;;;;5056015;28;20176;-42
2021/03/01 03:55:45;;;;;;;1999.90;999.90;;;21.60;68.80;;;;;;5055930;28;20149;-43
2021/03/01 03:58:19;;;;;;;1999.90;999.90;;;21.60;68.80;;;;;;5055761;28;20193;-42
2021/03/01 04:00:51;;;;;;;1999.90;999.90;;;21.40;69.20;;;;;;5055787;28;20521;-41
2021/03/01 04:03:19;;;;;;;1999.90;999.90;;;21.30;69.60;;;;;;5055741;28;20685;-41
2021/03/01 04:05:48;;;;;;;1999.90;999.90;;;21.20;69.70;;;;;;5055700;28;20227;-41
2021/03/01 04:08:16;;;;;;;1999.90;999.90;;;21.10;69.90;;;;;;5055565;28;20259;-43
2021/03/01 04:10:50;;;;;;;1999.90;999.90;;;21.10;70.20;;;;;;5055616;28;20205;-47
2021/03/01 04:13:18;;;;;;;1999.90;999.90;;;21.20;70.20;;;;;;5055563;28;20517;-43
2021/03/01 04:15:47;;;;;;;1999.90;999.90;;;21.20;70.00;;;;;;5055459;28;20188;-42
2021/03/01 04:18:22;;;;;;;1999.90;999.90;;;21.10;70.30;;;;;;5055449;28;20201;-41
2021/03/01 04:20:51;;;;;;;1999.90;999.90;;;21.10;70.70;;;;;;5055472;28;20153;-42
2021/03/01 04:23:19;;;;;;;1999.90;999.90;;;21.00;71.00;;;;;;5055368;28;20200;-41
2021/03/01 04:25:48;;;;;;;1999.90;999.90;;;21.00;71.60;;;;;;5055386;28;20690;-41
2021/03/01 04:28:17;;;;;;;1999.90;999.90;;;21.00;71.80;;;;;;5055238;28;20598;-43
2021/03/01 04:30:44;;;;;;;1999.90;999.90;;;21.10;71.70;;;;;;5053861;28;20275;-39
2021/03/01 04:33:13;;;;;;;1999.90;999.90;;;21.20;71.50;;;;;;5055212;28;20161;-42
2021/03/01 04:35:41;;;;;;;1999.90;999.90;;;21.20;71.40;;;;;;5054018;28;20578;-41
2021/03/01 04:38:08;;;;;;;1999.90;999.90;;;21.20;71.70;;;;;;5054974;28;20169;-42
2021/03/01 04:40:35;;;;;;;1999.90;999.90;;;21.20;71.70;;;;;;5054961;28;20165;-41
2021/03/01 04:43:03;;;;;;;1999.90;999.90;;;21.20;72.30;;;;;;5054941;28;20169;-42
2021/03/01 04:45:30;;;;;;;1999.90;999.90;;;21.20;72.10;;;;;;5055172;28;20523;-42
2021/03/01 04:47:57;;;;;;;1999.90;999.90;;;21.30;72.20;;;;;;5054765;28;20675;-42
2021/03/01 04:50:24;;;;;;;1999.90;999.90;;;21.40;72.00;;;;;;5054809;28;20248;-42
2021/03/01 04:52:51;;;;;;;1999.90;999.90;;;21.40;71.80;;;;;;5054678;28;20299;-42
2021/03/01 04:55:19;;;;;;;1999.90;999.90;;;21.40;71.80;;;;;;5054731;28;20173;-45
2021/03/01 04:57:46;;;;;;;1999.90;999.90;;;21.50;71.50;;;;;;5054678;28;20169;-43
2021/03/01 05:00:13;;;;;;;1999.90;999.90;;;21.60;71.50;;;;;;5054510;28;20698;-42
2021/03/01 05:02:41;;;;;;;1999.90;999.90;;;21.70;71.10;;;;;;5054412;28;20188;-43
2021/03/01 05:05:09;;;;;;;1999.90;999.90;;;21.80;70.60;;;;;;5054337;28;20181;-43
2021/03/01 05:07:36;;;;;;;1999.90;999.90;;;22.00;70.00;;;;;;5054432;28;20165;-43
2021/03/01 05:10:07;;;;;;;1999.90;999.90;;;22.00;69.70;;;;;;5054217;28;20639;-42
2021/03/01 05:12:34;;;;;;;1999.90;999.90;;;22.10;69.70;;;;;;5054687;28;20211;-41
2021/03/01 05:15:00;;;;;;;1999.90;999.90;;;22.20;69.60;;;;;;5054312;28;20590;-42
2021/03/01 05:17:27;;;;;;;1999.90;999.90;;;22.20;69.40;;;;;;5054231;28;20177;-41
2021/03/01 05:19:54;;;;;;;1999.90;999.90;;;22.20;69.30;;;;;;5054240;28;20167;-42
2021/03/01 05:22:21;;;;;;;1999.90;999.90;;;22.20;69.20;;;;;;5054089;28;20628;-43
2021/03/01 05:24:48;;;;;;;1999.90;999.90;;;22.20;68.90;;;;;;5054052;28;20169;-42
2021/03/01 05:27:15;;;;;;;1999.90;999.90;;;22.30;68.50;;;;;;5054326;28;20502;-42
2021/03/01 05:29:42;;;;;;;1999.90;999.90;;;22.40;68.50;;;;;;5053860;28;20211;-43
2021/03/01 05:32:09;;;;;;;1999.90;999.90;;;22.50;68.30;;;;;;5053719;28;20346;-43
2021/03/01 05:34:35;;;;;;;1999.90;999.90;;;22.60;68.00;;;;;;5053837;28;20169;-43
2021/03/01 05:37:03;;;;;;;1999.90;999.90;;;22.70;67.00;;;;;;5053778;28;20222;-43
2021/03/01 05:39:30;;;;;;;1999.90;999.90;;;22.80;66.70;;;;;;5052321;28;20260;-43
2021/03/01 05:41:57;;;;;;;1999.90;999.90;;;23.00;66.60;;;;;;5053287;28;20166;-43
2021/03/01 05:44:25;;;;;;;1999.90;999.90;;;23.00;66.30;;;;;;5053260;28;20166;-44
2021/03/01 05:46:55;;;;;;;1999.90;999.90;;;23.10;66.10;;;;;;5053437;28;20195;-42
2021/03/01 05:49:22;;;;;;;1999.90;999.90;;;23.10;66.00;;;;;;5053477;28;20247;-43
2021/03/01 05:51:51;;;;;;;1999.90;999.90;;;23.10;66.30;;;;;;5053453;28;20172;-43
2021/03/01 05:54:20;;;;;;;1999.90;999.90;;;22.90;66.80;;;;;;5053711;28;20191;-43
2021/03/01 05:56:48;;;;;;;1999.90;999.90;;;22.80;66.90;;;;;;5053508;28;20620;-61
2021/03/01 05:59:16;;;;;;;1999.90;999.90;;;23.00;65.50;;;;;;5053216;28;20649;-46
2021/03/01 06:01:44;;;;;;;1999.90;999.90;;;23.40;64.80;;;;;;5052796;28;20184;-42
2021/03/01 06:04:11;;;;;;;1999.90;999.90;;;23.50;64.70;;;;;;5052833;28;20165;-41
2021/03/01 06:06:39;;;;;;;1999.90;999.90;;;23.50;64.80;;;;;;5052819;28;20215;-44
2021/03/01 06:09:06;;;;;;;1999.90;999.90;;;23.70;64.10;;;;;;5052896;28;20643;-43
2021/03/01 06:11:34;;;;;;;1999.90;999.90;;;23.70;63.90;;;;;;5053269;28;20161;-47
2021/03/01 06:14:05;;;;;;;1999.90;999.90;;;23.60;66.60;;;;;;5034414;28;20173;-48
2021/03/01 06:16:33;;;;;;;1999.90;999.90;;;23.40;67.50;;;;;;5052968;28;20188;-49
2021/03/01 06:19:00;;;;;;;1999.90;999.90;;;23.20;69.60;;;;;;5051782;28;20169;-44
2021/03/01 06:21:27;;;;;;;1999.90;999.90;;;23.30;68.90;;;;;;5052792;28;20184;-48
2021/03/01 06:23:55;;;;;;;1999.90;999.90;;;23.40;67.80;;;;;;5052852;28;20181;-58
2021/03/01 06:26:24;;;;;;;1999.90;999.90;;;23.50;66.40;;;;;;5053002;28;20174;-51
2021/03/01 06:29:08;;;;;;;1999.90;999.90;;;23.80;65.70;;;;;;5052979;28;20257;-52
2021/03/01 06:31:48;;;;;;;1999.90;999.90;;;24.00;64.20;;;;;;5050967;28;20244;-48
2021/03/01 06:34:32;;;;;;;1999.90;999.90;;;24.20;63.30;;;;;;5048658;28;20634;-48
2021/03/01 06:37:16;;;;;;;1999.90;999.90;;;24.30;62.50;;;;;;5050991;28;20573;-52
2021/03/01 06:39:50;;;;;;;1999.90;999.90;;;24.40;62.50;;;;;;5051443;28;20169;-45
2021/03/01 06:42:19;;;;;;;1999.90;999.90;;;24.30;62.90;;;;;;5050745;28;20187;-53
2021/03/01 06:44:58;;;;;;;1999.90;999.90;;;24.40;62.80;;;;;;5051590;28;20176;-53
2021/03/01 06:47:46;;;;;;;1999.90;999.90;;;24.40;62.40;;;;;;5050645;28;20303;-58
2021/03/01 06:50:32;;;;;;;1999.90;999.90;;;24.60;61.90;;;;;;5050856;28;20280;-61
2021/03/01 06:53:02;;;;;;;1999.90;999.90;;;24.80;61.30;;;;;;5051301;28;20285;-57
2021/03/01 06:55:30;;;;;;;1999.90;999.90;;;25.00;60.60;;;;;;5050363;28;20169;-58
2021/03/01 06:57:57;;;;;;;1999.90;999.90;;;25.10;60.10;;;;;;5051529;28;20196;-59
2021/03/01 07:00:27;;;;;;;1999.90;999.90;;;25.30;60.10;;;;;;5052100;28;20180;-45
2021/03/01 07:02:57;;;;;;;1999.90;999.90;;;25.40;59.30;;;;;;5051091;28;20671;-44
2021/03/01 07:05:24;;;;;;;1999.90;999.90;;;25.50;59.00;;;;;;5051792;28;20189;-50
2021/03/01 07:07:50;;;;;;;1999.90;999.90;;;25.50;59.10;;;;;;5051537;28;20175;-45
2021/03/01 07:10:17;;;;;;;1999.90;999.90;;;25.60;59.10;;;;;;5051276;28;20204;-44
2021/03/01 07:12:49;;;;;;;1999.90;999.90;;;25.90;58.20;;;;;;5051532;28;20181;-44
2021/03/01 07:15:16;;;;;;;1999.90;999.90;;;26.10;57.70;;;;;;5051869;28;20188;-44
2021/03/01 07:17:45;;;;;;;1999.90;999.90;;;26.50;57.40;;;;;;5051345;28;20167;-45
2021/03/01 07:20:14;;;;;;;1999.90;999.90;;;26.80;56.30;;;;;;5051840;28;20169;-48
2021/03/01 07:22:45;;;;;;;1999.90;999.90;;;27.10;55.10;;;;;;5048587;28;20213;-49
2021/03/01 07:25:13;;;;;;;1999.90;999.90;;;27.10;54.60;;;;;;5048705;28;20195;-43
2021/03/01 07:27:42;;;;;;;1999.90;999.90;;;26.90;55.20;;;;;;5050575;28;20539;-45
2021/03/01 07:30:11;;;;;;;1999.90;999.90;;;26.70;55.50;;;;;;5051591;28;20188;-57
2021/03/01 07:32:40;;;;;;;1999.90;999.90;;;26.90;55.10;;;;;;5041070;28;20233;-48
2021/03/01 07:35:08;;;;;;;1999.90;999.90;;;27.50;54.60;;;;;;5050628;28;20584;-44
2021/03/01 07:37:36;;;;;;;1999.90;999.90;;;27.80;53.10;;;;;;5051303;28;20252;-44
2021/03/01 07:40:08;;;;;;;1999.90;999.90;;;28.20;52.90;;;;;;5051143;28;20233;-46
2021/03/01 07:42:38;;;;;;;1999.90;999.90;;;28.50;51.80;;;;;;5051888;28;20561;-43
2021/03/01 07:45:07;;;;;;;1999.90;999.90;;;28.70;51.90;;;;;;5051575;28;20706;-48
2021/03/01 07:47:34;;;;;;;1999.90;999.90;;;28.80;51.20;;;;;;5051599;28;20169;-42
2021/03/01 07:50:01;;;;;;;1999.90;999.90;;;28.70;51.80;;;;;;5051464;28;20201;-42
2021/03/01 07:52:31;;;;;;;1999.90;999.90;;;28.80;51.50;;;;;;5051375;28;20170;-42
2021/03/01 07:55:02;;;;;;;1999.90;999.90;;;28.90;50.60;;;;;;5051829;28;20165;-44
2021/03/01 07:57:30;;;;;;;1999.90;999.90;;;29.10;50.00;;;;;;5051366;28;20526;-42
2021/03/01 07:59:58;;;;;;;1999.90;999.90;;;29.40;49.50;;;;;;5051275;28;20169;-44
2021/03/01 08:02:33;;;;;;;1999.90;999.90;;;29.70;49.10;;;;;;5051357;28;20181;-43
2021/03/01 08:05:20;;;;;;;1999.90;999.90;;;30.40;47.10;;;;;;5052669;28;20695;-49
2021/03/01 08:07:47;;;;;;;1999.90;999.90;;;30.90;45.70;;;;;;5054863;28;20179;-41
2021/03/01 08:10:33;;;;;;;1999.90;999.90;;;31.60;43.60;;;;;;5054787;28;20208;-45
2021/03/01 08:13:05;;;;;;;1999.90;999.90;;;32.00;43.00;;;;;;5047811;28;20192;-47
2021/03/01 08:15:43;;;;;;;1999.90;999.90;;;31.90;42.70;;;;;;5055160;28;20703;-44
2021/03/01 08:18:12;;;;;;;1999.90;999.90;;;32.70;42.20;;;;;;5054535;28;20631;-49
2021/03/01 08:20:41;;;;;;;1999.90;999.90;;;33.50;40.90;;;;;;5054265;28;20161;-52
2021/03/01 08:23:10;;;;;;;1999.90;999.90;;;34.10;39.70;;;;;;5054637;28;20177;-46
2021/03/01 08:25:48;;;;;;;1999.90;999.90;;;34.70;38.30;;;;;;5054720;28;20534;-50
2021/03/01 08:28:18;;;;;;;1999.90;999.90;;;34.70;38.10;;;;;;5054982;28;20193;-55
2021/03/01 08:30:45;;;;;;;1999.90;999.90;;;35.00;37.00;;;;;;5054522;28;20268;-53
2021/03/01 08:33:12;;;;;;;1999.90;999.90;;;35.30;34.80;;;;;;5054836;28;20350;-56
2021/03/01 08:35:48;;;;;;;1999.90;999.90;;;35.00;34.30;;;;;;5054880;28;20169;-58
2021/03/01 08:38:17;;;;;;;1999.90;999.90;;;35.60;33.00;;;;;;5054001;28;20335;-50
2021/03/01 08:40:55;;;;;;;1999.90;999.90;;;36.30;32.20;;;;;;5052727;28;20260;-50
2021/03/01 08:43:45;;;;;;;1999.90;999.90;;;36.80;32.10;;;;;;5054459;28;20179;-60
2021/03/01 08:46:15;;;;;;;1999.90;999.90;;;37.00;31.50;;;;;;5054187;28;20177;-56
2021/03/01 08:48:47;;;;;;;1999.90;999.90;;;36.80;31.50;;;;;;5053982;28;20201;-58
2021/03/01 08:51:15;;;;;;;1999.90;999.90;;;36.20;32.60;;;;;;5054393;28;20556;-47
2021/03/01 08:53:42;;;;;;;1999.90;999.90;;;35.30;32.80;;;;;;5052636;28;20188;-43
2021/03/01 08:56:19;;;;;;;1999.90;999.90;;;35.10;33.00;;;;;;5053699;28;20173;-47
2021/03/01 08:58:46;;;;;;;1999.90;999.90;;;34.20;33.70;;;;;;5053855;28;20259;-46
2021/03/01 09:01:13;;;;;;;1999.90;999.90;;;34.50;33.70;;;;;;5053375;28;20205;-57
2021/03/01 09:03:42;;;;;;;1999.90;999.90;;;34.30;34.00;;;;;;5054078;28;20255;-47
2021/03/01 09:06:09;;;;;;;1999.90;999.90;;;33.80;35.10;;;;;;5053515;28;20214;-45
2021/03/01 09:08:49;;;;;;;1999.90;999.90;;;33.90;34.80;;;;;;5052848;28;20197;-44
2021/03/01 09:11:28;;;;;;;1999.90;999.90;;;34.60;33.90;;;;;;5053391;28;20592;-46
2021/03/01 09:14:05;;;;;;;1999.90;999.90;;;35.20;33.50;;;;;;5044123;28;20176;-48
2021/03/01 09:16:34;;;;;;;1999.90;999.90;;;35.80;31.00;;;;;;5052813;28;20173;-43
2021/03/01 09:19:09;;;;;;;1999.90;999.90;;;36.00;30.80;;;;;;5033998;28;20168;-49
2021/03/01 09:21:40;;;;;;;1999.90;999.90;;;36.00;30.20;;;;;;5033938;28;20173;-47
2021/03/01 09:24:09;;;;;;;1999.90;999.90;;;35.60;31.00;;;;;;5050160;28;20161;-51
2021/03/01 09:26:38;;;;;;;1999.90;999.90;;;35.60;31.20;;;;;;5052684;28;20295;-48
2021/03/01 09:29:17;;;;;;;1999.90;999.90;;;35.60;31.60;;;;;;5053274;28;20205;-50
2021/03/01 09:31:53;;;;;;;1999.90;999.90;;;36.00;30.60;;;;;;5050252;28;20703;-44
2021/03/01 09:34:22;;;;;;;1999.90;999.90;;;36.70;30.00;;;;;;5053668;28;20487;-59
2021/03/01 09:36:49;;;;;;;1999.90;999.90;;;37.80;29.30;;;;;;5053393;28;20260;-44
2021/03/01 09:39:25;;;;;;;1999.90;999.90;;;37.60;29.20;;;;;;5053848;28;20182;-49
2021/03/01 09:42:00;;;;;;;1999.90;999.90;;;37.70;28.80;;;;;;5053381;28;20301;-44
2021/03/01 09:44:29;;;;;;;1999.90;999.90;;;37.90;28.60;;;;;;5052212;28;20165;-45
2021/03/01 09:46:58;;;;;;;1999.90;999.90;;;38.40;28.00;;;;;;5053459;28;20165;-49
2021/03/01 09:49:28;;;;;;;1999.90;999.90;;;38.30;28.10;;;;;;5049755;28;20250;-42
2021/03/01 09:51:56;;;;;;;1999.90;999.90;;;37.40;29.90;;;;;;5051058;28;20508;-44
2021/03/01 09:54:25;;;;;;;1999.90;999.90;;;38.10;29.60;;;;;;5052364;28;20177;-43
2021/03/01 09:56:54;;;;;;;1999.90;999.90;;;38.30;29.30;;;;;;5052280;28;20177;-44
2021/03/01 09:59:31;;;;;;;1999.90;999.90;;;37.70;29.40;;;;;;5052955;28;20177;-43
2021/03/01 10:02:18;;;;;;;1999.90;999.90;;;37.30;29.90;;;;;;5052389;28;20181;-43
2021/03/01 10:04:46;;;;;;;1999.90;999.90;;;35.70;31.20;;;;;;5052913;28;20169;-45
2021/03/01 10:07:24;;;;;;;1999.90;999.90;;;35.70;32.30;;;;;;5052638;28;20608;-50
2021/03/01 10:09:53;;;;;;;1999.90;999.90;;;35.40;32.60;;;;;;5052989;28;20196;-43
2021/03/01 10:12:21;;;;;;;1999.90;999.90;;;35.20;33.20;;;;;;5052666;28;20219;-46
2021/03/01 10:14:55;;;;;;;1999.90;999.90;;;35.20;33.10;;;;;;5052957;28;20526;-51
2021/03/01 10:17:27;;;;;;;1999.90;999.90;;;35.10;33.10;;;;;;5051167;28;20185;-62
2021/03/01 10:20:02;;;;;;;1999.90;999.90;;;34.70;33.00;;;;;;5052695;28;20240;-56
2021/03/01 10:22:29;;;;;;;1999.90;999.90;;;34.60;34.10;;;;;;5052719;28;20192;-57
2021/03/01 10:24:57;;;;;;;1999.90;999.90;;;34.60;33.60;;;;;;5052521;28;20226;-60
2021/03/01 10:27:36;;;;;;;1999.90;999.90;;;34.40;33.80;;;;;;5052829;28;20180;-59
2021/03/01 10:30:04;;;;;;;1999.90;999.90;;;34.20;34.30;;;;;;5051572;28;20766;-51
2021/03/01 10:32:31;;;;;;;1999.90;999.90;;;34.00;34.60;;;;;;5051922;28;20252;-50
2021/03/01 10:34:58;;;;;;;1999.90;999.90;;;33.70;34.50;;;;;;5052397;28;20208;-46
2021/03/01 10:37:26;;;;;;;1999.90;999.90;;;33.40;35.00;;;;;;5052300;28;20165;-50
2021/03/01 10:39:54;;;;;;;1999.90;999.90;;;33.10;35.30;;;;;;5051802;28;20394;-63
2021/03/01 10:42:26;;;;;;;1999.90;999.90;;;32.90;35.10;;;;;;5052222;28;20184;-51
2021/03/01 10:44:57;;;;;;;1999.90;999.90;;;32.60;39.30;;;;;;5052543;28;20260;-46
2021/03/01 10:47:31;;;;;;;1999.90;999.90;;;31.60;41.70;;;;;;5051766;28;20534;-47
2021/03/01 10:50:05;;;;;;;1999.90;999.90;;;31.10;42.00;;;;;;5051745;28;20551;-56
2021/03/01 10:52:32;;;;;;;1999.90;999.90;;;30.80;43.60;;;;;;5051883;28;20629;-58
2021/03/01 10:55:01;;;;;;;1999.90;999.90;;;30.60;43.70;;;;;;5051454;28;20180;-60
2021/03/01 10:57:28;;;;;;;1999.90;999.90;;;30.40;46.00;;;;;;5051864;28;20173;-49
2021/03/01 10:59:56;;;;;;;1999.90;999.90;;;30.20;46.00;;;;;;5052525;28;20613;-45
2021/03/01 11:02:22;;;;;;;1999.90;999.90;;;30.10;44.70;;;;;;5052453;28;20539;-47
2021/03/01 11:04:50;;;;;;;1999.90;999.90;;;30.00;45.00;;;;;;5045270;28;20175;-49
2021/03/01 11:07:17;;;;;;;1999.90;999.90;;;30.10;44.60;;;;;;5052210;28;20227;-50
2021/03/01 11:09:44;;;;;;;1999.90;999.90;;;30.00;47.80;;;;;;5052118;28;20212;-45
2021/03/01 11:12:11;;;;;;;1999.90;999.90;;;29.70;49.30;;;;;;5051833;28;20558;-47
2021/03/01 11:14:38;;;;;;;1999.90;999.90;;;29.30;49.20;;;;;;5051876;28;20173;-56
2021/03/01 11:17:05;;;;;;;1999.90;999.90;;;29.00;49.70;;;;;;5051879;28;20180;-52
2021/03/01 11:19:32;;;;;;;1999.90;999.90;;;28.90;51.70;;;;;;5051852;28;20169;-57
2021/03/01 11:21:58;;;;;;;1999.90;999.90;;;28.70;50.30;;;;;;5052202;28;20616;-51
2021/03/01 11:24:25;;;;;;;1999.90;999.90;;;28.60;51.70;;;;;;5051534;28;20173;-41
2021/03/01 11:26:53;;;;;;;1999.90;999.90;;;28.50;56.90;;;;;;5052606;28;20203;-39
2021/03/01 11:29:21;;;;;;;1999.90;999.90;;;28.30;54.90;;;;;;5052692;28;20200;-41
2021/03/01 11:31:49;;;;;;;1999.90;999.90;;;28.20;56.20;;;;;;5052006;28;20236;-41
2021/03/01 11:34:15;;;;;;;1999.90;999.90;;;28.20;56.00;;;;;;5052173;28;20686;-40
2021/03/01 11:36:42;;;;;;;1999.90;999.90;;;28.20;57.40;;;;;;5050531;28;20640;-40
2021/03/01 11:39:13;;;;;;;1999.90;999.90;;;28.10;61.20;;;;;;5051177;28;20208;-42
2021/03/01 11:41:40;;;;;;;1999.90;999.90;;;27.60;65.20;;;;;;5054975;28;20173;-50
2021/03/01 11:44:08;;;;;;;1999.90;999.90;;;27.30;65.90;;;;;;5050884;28;20235;-41
2021/03/01 11:46:36;;;;;;;1999.90;999.90;;;27.10;69.00;;;;;;5055444;28;20161;-54
2021/03/01 11:49:04;;;;;;;1999.90;999.90;;;27.00;66.20;;;;;;5054962;28;20319;-56
2021/03/01 11:51:31;;;;;;;1999.90;999.90;;;27.00;65.70;;;;;;5055060;28;20176;-49
2021/03/01 11:53:57;;;;;;;1999.90;999.90;;;27.00;65.70;;;;;;5055638;28;20169;-43
2021/03/01 11:56:25;;;;;;;1999.90;999.90;;;27.20;63.50;;;;;;5055617;28;20256;-41
2021/03/01 11:58:53;;;;;;;1999.90;999.90;;;27.10;64.70;;;;;;5055017;28;20177;-46
2021/03/01 12:01:21;;;;;;;1999.90;999.90;;;27.10;62.60;;;;;;5055373;28;20612;-46
2021/03/01 12:03:48;;;;;;;1999.90;999.90;;;27.00;61.80;;;;;;5054201;28;20658;-52
2021/03/01 12:06:15;;;;;;;1999.90;999.90;;;27.00;59.30;;;;;;5037292;28;20639;-54
2021/03/01 12:08:45;;;;;;;1999.90;999.90;;;26.90;59.80;;;;;;5055067;28;20303;-46
2021/03/01 12:11:15;;;;;;;1999.90;999.90;;;26.90;60.60;;;;;;5054969;28;20175;-48